Time;durP1;ratioP1;P1;durP2;ratioP2;P2;SDS_P1;SDS_P2;PMS_P1;PMS_P2;Temp;Humidity;BMP_temperature;BMP_pressure;BME280_temperature;BME280_humidity;BME280_pressure;Samples;Min_cycle;Max_cycle;Signal;HPM_P1;HPM_P2
2022/07/07 00:02:20;;;;;;;3.00;0.80;;;15.80;99.90;;;;;;5040140;28;20065;-68
2022/07/07 00:04:48;;;;;;;1.63;0.52;;;15.80;99.90;;;;;;5040696;28;20033;-67
2022/07/07 00:07:15;;;;;;;1.92;1.13;;;15.70;99.90;;;;;;5040000;28;20039;-66
2022/07/07 00:09:42;;;;;;;1.48;0.45;;;15.60;99.90;;;;;;5040391;28;20060;-69
2022/07/07 00:12:10;;;;;;;3.72;1.13;;;15.50;99.90;;;;;;5039051;28;20029;-67
2022/07/07 00:14:37;;;;;;;2.30;0.70;;;15.50;99.90;;;;;;5040994;28;20023;-66
2022/07/07 00:17:04;;;;;;;1.50;0.68;;;15.60;99.90;;;;;;5021156;28;20037;-68
2022/07/07 00:19:32;;;;;;;4.53;1.45;;;15.50;99.90;;;;;;5040104;28;20765;-67
2022/07/07 00:22:00;;;;;;;1.02;0.60;;;15.60;99.90;;;;;;5039881;28;20093;-66
2022/07/07 00:24:27;;;;;;;3.40;1.42;;;15.60;99.90;;;;;;5040272;28;20391;-66
2022/07/07 00:26:54;;;;;;;2.67;1.60;;;15.60;99.90;;;;;;5039469;28;20029;-67
2022/07/07 00:29:21;;;;;;;2.15;1.27;;;15.70;99.90;;;;;;5040530;28;20402;-65
2022/07/07 00:31:48;;;;;;;2.67;1.00;;;15.80;99.90;;;;;;5040328;28;20413;-65
2022/07/07 00:34:15;;;;;;;4.20;0.90;;;16.00;99.90;;;;;;5041005;28;20422;-65
2022/07/07 00:36:43;;;;;;;3.00;1.02;;;16.10;99.90;;;;;;5036908;28;21376;-67
2022/07/07 00:39:10;;;;;;;2.72;0.98;;;16.20;99.90;;;;;;5038458;28;20044;-67
2022/07/07 00:41:37;;;;;;;3.05;0.93;;;16.30;99.90;;;;;;5039484;28;20035;-68
2022/07/07 00:44:06;;;;;;;2.22;1.10;;;16.40;99.90;;;;;;5040549;28;20035;-66
2022/07/07 00:46:48;;;;;;;1.08;0.55;;;16.60;99.90;;;;;;5039976;28;20029;-68
2022/07/07 00:49:17;;;;;;;2.97;1.10;;;16.70;99.90;;;;;;5039502;28;20574;-66
2022/07/07 00:51:45;;;;;;;1.95;0.57;;;16.90;99.90;;;;;;5040862;28;20039;-64
2022/07/07 00:54:12;;;;;;;2.40;1.30;;;17.00;99.90;;;;;;5040254;28;20082;-64
2022/07/07 00:56:40;;;;;;;2.03;0.70;;;17.10;99.90;;;;;;5040725;28;20048;-64
2022/07/07 00:59:08;;;;;;;3.28;0.68;;;17.20;99.90;;;;;;5042725;28;20476;-68
2022/07/07 01:01:41;;;;;;;3.28;0.80;;;17.20;99.90;;;;;;5042276;28;20632;-68
2022/07/07 01:04:12;;;;;;;3.80;0.93;;;17.30;99.90;;;;;;5044427;28;20361;-65
2022/07/07 01:06:41;;;;;;;3.03;0.80;;;17.40;99.90;;;;;;5045007;28;20162;-68
2022/07/07 01:09:09;;;;;;;2.72;0.60;;;17.50;99.90;;;;;;5043390;28;20025;-68
2022/07/07 01:11:56;;;;;;;1.23;0.52;;;17.60;99.90;;;;;;5043174;28;20021;-66
2022/07/07 01:14:24;;;;;;;2.38;0.80;;;17.70;99.90;;;;;;5043103;28;20029;-66
2022/07/07 01:16:52;;;;;;;2.60;0.93;;;17.80;99.90;;;;;;5043272;28;20057;-66
2022/07/07 01:19:21;;;;;;;2.72;0.50;;;18.00;99.90;;;;;;5042762;28;20029;-65
2022/07/07 01:22:03;;;;;;;3.13;0.88;;;18.20;99.90;;;;;;5042126;28;20035;-67
2022/07/07 01:24:31;;;;;;;1.27;0.57;;;18.40;99.90;;;;;;5041764;28;20029;-67
2022/07/07 01:27:13;;;;;;;7.50;1.38;;;18.60;99.90;;;;;;5044910;28;20569;-68
2022/07/07 01:29:43;;;;;;;1.88;0.90;;;18.70;99.90;;;;;;5044673;28;20045;-64
2022/07/07 01:32:10;;;;;;;3.97;0.90;;;18.90;99.90;;;;;;5040640;28;20459;-67
2022/07/07 01:34:39;;;;;;;4.05;0.73;;;18.90;99.90;;;;;;5041531;28;20025;-67
2022/07/07 01:37:07;;;;;;;2.97;0.77;;;18.90;99.90;;;;;;5040479;28;20123;-68
2022/07/07 01:39:35;;;;;;;1.83;1.05;;;18.60;99.90;;;;;;5039473;28;20118;-65
2022/07/07 01:42:03;;;;;;;2.38;0.70;;;18.50;99.90;;;;;;5040613;28;20495;-66
2022/07/07 01:44:38;;;;;;;2.28;0.70;;;18.30;99.90;;;;;;5043322;28;20083;-67
2022/07/07 01:47:07;;;;;;;1.67;0.70;;;18.30;99.90;;;;;;5040550;28;20018;-66
2022/07/07 01:49:35;;;;;;;2.10;0.85;;;18.30;99.90;;;;;;5040083;28;20561;-66
2022/07/07 01:52:03;;;;;;;7.15;1.67;;;18.50;99.90;;;;;;5041581;28;20029;-64
2022/07/07 01:54:31;;;;;;;1.65;0.60;;;18.80;99.90;;;;;;5041483;28;20121;-65
2022/07/07 01:57:00;;;;;;;2.03;0.77;;;19.20;99.90;;;;;;5043629;28;20028;-67
2022/07/07 01:59:28;;;;;;;2.33;0.77;;;19.20;99.90;;;;;;5041550;28;20064;-67
2022/07/07 02:01:55;;;;;;;2.17;0.52;;;19.30;99.90;;;;;;5044620;28;20438;-63
2022/07/07 02:04:22;;;;;;;2.65;0.75;;;19.30;99.90;;;;;;5041820;28;20036;-65
2022/07/07 02:06:50;;;;;;;4.57;1.17;;;19.30;99.90;;;;;;5043996;28;20067;-68
2022/07/07 02:09:17;;;;;;;1.83;0.85;;;18.90;99.90;;;;;;5041569;28;20075;-67
2022/07/07 02:11:44;;;;;;;2.67;0.70;;;18.80;99.90;;;;;;5040963;28;20078;-64
2022/07/07 02:14:12;;;;;;;4.57;0.77;;;18.80;99.90;;;;;;5041323;28;20063;-65
2022/07/07 02:16:39;;;;;;;3.25;0.80;;;18.90;99.90;;;;;;5042495;28;20078;-64
2022/07/07 02:19:07;;;;;;;2.47;0.98;;;19.00;99.90;;;;;;5041914;28;20087;-67
2022/07/07 02:21:35;;;;;;;2.30;0.63;;;19.00;99.90;;;;;;5042258;28;20029;-64
2022/07/07 02:24:03;;;;;;;3.50;0.70;;;18.90;99.90;;;;;;5039643;28;21456;-64
2022/07/07 02:26:33;;;;;;;3.28;0.73;;;18.80;99.90;;;;;;5042159;28;20028;-65
2022/07/07 02:29:02;;;;;;;1.05;0.77;;;18.90;99.90;;;;;;5043276;28;20033;-65
2022/07/07 02:31:29;;;;;;;3.67;0.68;;;18.90;99.90;;;;;;5041265;28;20620;-65
2022/07/07 02:33:57;;;;;;;2.58;0.70;;;19.00;99.90;;;;;;5041596;28;20029;-68
2022/07/07 02:36:24;;;;;;;2.72;0.90;;;19.10;99.90;;;;;;5023293;28;20024;-65
2022/07/07 02:38:51;;;;;;;2.15;0.70;;;19.10;99.90;;;;;;5042865;28;20387;-65
2022/07/07 02:41:19;;;;;;;2.70;0.50;;;19.10;99.90;;;;;;5040414;28;20029;-66
2022/07/07 02:43:47;;;;;;;3.10;0.65;;;18.90;99.90;;;;;;5043575;28;20480;-68
2022/07/07 02:46:14;;;;;;;2.42;0.75;;;18.70;99.90;;;;;;5042680;28;20078;-67
2022/07/07 02:48:41;;;;;;;3.22;0.68;;;18.80;99.90;;;;;;5042223;28;20033;-66
2022/07/07 02:51:08;;;;;;;3.30;0.60;;;18.80;99.90;;;;;;5042912;28;20468;-67
2022/07/07 02:53:36;;;;;;;1.85;0.90;;;18.90;99.90;;;;;;5042363;28;20400;-67
2022/07/07 02:56:03;;;;;;;1.63;0.65;;;18.90;99.90;;;;;;5042368;28;20021;-70
2022/07/07 02:58:31;;;;;;;0.85;0.35;;;18.90;99.90;;;;;;5042085;28;20446;-68
2022/07/07 03:00:58;;;;;;;2.83;0.63;;;19.00;99.90;;;;;;5038490;28;20028;-67
2022/07/07 03:03:25;;;;;;;3.03;0.73;;;19.00;99.90;;;;;;5038304;28;20063;-67
2022/07/07 03:05:52;;;;;;;2.33;0.63;;;19.00;99.90;;;;;;5038376;28;20027;-67
2022/07/07 03:08:19;;;;;;;0.85;0.45;;;19.00;99.90;;;;;;5036829;28;20024;-67
2022/07/07 03:10:46;;;;;;;1.67;0.65;;;18.90;99.90;;;;;;5037974;28;20025;-67
2022/07/07 03:13:13;;;;;;;0.50;0.40;;;18.80;99.90;;;;;;5032237;28;20072;-68
2022/07/07 03:15:41;;;;;;;2.20;0.50;;;18.80;99.90;;;;;;5038628;28;20406;-66
2022/07/07 03:18:08;;;;;;;3.88;0.52;;;18.80;99.90;;;;;;5037594;28;20063;-67
2022/07/07 03:20:35;;;;;;;1.60;0.60;;;18.90;99.90;;;;;;5035892;28;21258;-67
2022/07/07 03:23:04;;;;;;;2.13;0.60;;;18.90;99.90;;;;;;5038209;28;20020;-67
2022/07/07 03:25:31;;;;;;;1.58;0.63;;;19.00;99.90;;;;;;5037061;28;20067;-65
2022/07/07 03:27:59;;;;;;;2.17;0.47;;;19.10;99.90;;;;;;5040293;28;20075;-64
2022/07/07 03:30:26;;;;;;;1.30;0.55;;;19.10;99.90;;;;;;5042876;28;20049;-67
2022/07/07 03:32:53;;;;;;;2.03;0.63;;;19.20;99.90;;;;;;5042025;28;20017;-65
2022/07/07 03:35:20;;;;;;;1.90;0.70;;;19.20;99.90;;;;;;5042912;28;20017;-68
2022/07/07 03:37:47;;;;;;;0.68;0.40;;;19.20;99.90;;;;;;5041227;28;20042;-67
2022/07/07 03:40:14;;;;;;;1.92;0.40;;;19.20;99.90;;;;;;5041307;28;20024;-68
2022/07/07 03:42:42;;;;;;;2.70;0.60;;;19.20;99.90;;;;;;5041738;28;20033;-65
2022/07/07 03:45:10;;;;;;;2.72;0.50;;;19.30;99.90;;;;;;5042638;28;20471;-67
2022/07/07 03:47:38;;;;;;;1.27;0.50;;;19.30;99.90;;;;;;5038589;28;20033;-66
2022/07/07 03:50:05;;;;;;;2.03;0.50;;;19.40;99.90;;;;;;5040009;28;20025;-68
2022/07/07 03:52:32;;;;;;;0.82;0.40;;;19.30;99.90;;;;;;5042411;28;20032;-67
2022/07/07 03:54:59;;;;;;;1.30;0.82;;;19.30;99.90;;;;;;5042103;28;20057;-66
2022/07/07 03:57:26;;;;;;;2.38;0.75;;;19.30;99.90;;;;;;5041881;28;20027;-68
2022/07/07 03:59:55;;;;;;;3.63;0.75;;;19.40;99.90;;;;;;5039196;28;20024;-66
2022/07/07 04:02:22;;;;;;;3.83;0.70;;;19.50;99.90;;;;;;5039844;28;20064;-68
2022/07/07 04:04:49;;;;;;;2.35;0.82;;;19.60;99.90;;;;;;5040092;28;20103;-68
2022/07/07 04:07:16;;;;;;;3.15;1.30;;;19.60;99.90;;;;;;5041304;28;20025;-66
2022/07/07 04:09:43;;;;;;;3.20;0.60;;;19.50;99.90;;;;;;5042578;28;20029;-67
2022/07/07 04:12:10;;;;;;;2.47;0.50;;;19.50;99.90;;;;;;5039635;28;20097;-69
2022/07/07 04:14:38;;;;;;;4.53;0.90;;;19.50;99.90;;;;;;5041497;28;20029;-66
2022/07/07 04:17:06;;;;;;;1.42;0.70;;;19.50;99.90;;;;;;5042069;28;20025;-68
2022/07/07 04:19:33;;;;;;;2.45;1.15;;;19.50;99.90;;;;;;5040586;28;20029;-68
2022/07/07 04:22:00;;;;;;;2.47;0.90;;;19.40;99.90;;;;;;5041821;28;20020;-68
2022/07/07 04:24:27;;;;;;;2.42;0.80;;;19.40;99.90;;;;;;5042671;28;20040;-66
2022/07/07 04:26:54;;;;;;;1.17;0.70;;;19.30;99.90;;;;;;5040725;28;20024;-67
2022/07/07 04:29:21;;;;;;;2.50;0.70;;;19.20;99.90;;;;;;5041623;28;20489;-67
2022/07/07 04:31:48;;;;;;;1.48;0.80;;;19.20;99.90;;;;;;5044668;28;20037;-66
2022/07/07 04:34:15;;;;;;;1.02;0.47;;;19.30;99.90;;;;;;5046063;28;20062;-65
2022/07/07 04:36:43;;;;;;;1.77;0.98;;;19.30;99.90;;;;;;5045358;28;20470;-67
2022/07/07 04:39:10;;;;;;;3.60;0.90;;;19.30;99.90;;;;;;5044916;28;20121;-66
2022/07/07 04:41:37;;;;;;;1.65;0.75;;;19.30;99.90;;;;;;5047967;28;20020;-65
2022/07/07 04:44:05;;;;;;;1.92;0.50;;;19.30;99.90;;;;;;5046551;28;20029;-68
2022/07/07 04:46:33;;;;;;;1.02;0.52;;;19.30;99.90;;;;;;5045238;28;20078;-67
2022/07/07 04:49:01;;;;;;;1.35;0.85;;;19.30;99.90;;;;;;5045796;28;20029;-68
2022/07/07 04:51:28;;;;;;;1.60;0.90;;;19.50;99.90;;;;;;5043661;28;20033;-66
2022/07/07 04:53:56;;;;;;;1.60;0.60;;;19.70;99.90;;;;;;5043943;28;20378;-69
2022/07/07 04:56:23;;;;;;;1.77;0.65;;;19.70;99.90;;;;;;5045858;28;20039;-67
2022/07/07 04:58:50;;;;;;;1.05;0.50;;;19.70;99.90;;;;;;5045860;28;20520;-66
2022/07/07 05:01:18;;;;;;;1.42;0.60;;;19.60;99.90;;;;;;5043812;28;20082;-66
2022/07/07 05:03:46;;;;;;;0.68;0.50;;;19.50;99.90;;;;;;5043403;28;20033;-68
2022/07/07 05:06:14;;;;;;;1.77;0.60;;;19.40;99.90;;;;;;5043674;28;20029;-65
2022/07/07 05:08:41;;;;;;;1.60;0.70;;;19.40;99.90;;;;;;5043890;28;20090;-63
2022/07/07 05:11:08;;;;;;;3.70;0.60;;;19.70;99.90;;;;;;5043252;28;20039;-66
2022/07/07 05:13:35;;;;;;;1.58;0.55;;;20.20;99.90;;;;;;5046052;28;20430;-65
2022/07/07 05:16:03;;;;;;;1.23;0.60;;;20.90;99.90;;;;;;5044023;28;20411;-66
2022/07/07 05:18:30;;;;;;;1.42;0.60;;;21.10;99.90;;;;;;5043816;28;20028;-65
2022/07/07 05:20:57;;;;;;;1.48;0.50;;;21.30;99.90;;;;;;5045261;28;20026;-68
2022/07/07 05:23:28;;;;;;;1.02;0.40;;;21.40;99.90;;;;;;5046011;28;20048;-67
2022/07/07 05:25:55;;;;;;;2.72;0.68;;;21.50;99.90;;;;;;5043753;28;20040;-66
2022/07/07 05:28:23;;;;;;;3.15;0.60;;;21.60;99.90;;;;;;5046693;28;20067;-67
2022/07/07 05:30:50;;;;;;;1.70;0.65;;;21.90;99.90;;;;;;5081876;22;20178;-69
2022/07/07 05:33:17;;;;;;;1.25;0.60;;;22.20;99.90;;;;;;5029702;28;20042;-68
2022/07/07 05:35:44;;;;;;;1.13;0.50;;;22.60;99.80;;;;;;5030257;28;20029;-68
2022/07/07 05:38:12;;;;;;;1.92;0.57;;;22.80;99.70;;;;;;5029931;28;20079;-67
2022/07/07 05:40:39;;;;;;;1.40;0.40;;;22.80;99.20;;;;;;5032447;28;20051;-69
2022/07/07 05:43:08;;;;;;;2.33;0.60;;;22.90;98.90;;;;;;5030912;28;20037;-69
2022/07/07 05:45:35;;;;;;;1.65;0.57;;;22.70;99.50;;;;;;5031261;28;20033;-68
2022/07/07 05:48:02;;;;;;;0.95;0.55;;;22.80;99.00;;;;;;5031869;28;20025;-65
2022/07/07 05:50:29;;;;;;;2.00;0.73;;;22.70;98.30;;;;;;5030753;28;20060;-69
2022/07/07 05:52:56;;;;;;;2.95;0.70;;;22.30;98.90;;;;;;5031076;28;20031;-68
2022/07/07 05:55:23;;;;;;;1.45;0.60;;;21.70;99.90;;;;;;5030376;28;20098;-66
2022/07/07 05:57:51;;;;;;;1.98;0.60;;;21.00;99.90;;;;;;5031540;28;20109;-66
2022/07/07 06:00:18;;;;;;;1.77;0.52;;;20.30;99.90;;;;;;5030940;28;20534;-67
2022/07/07 06:02:45;;;;;;;0.90;0.68;;;19.80;99.90;;;;;;5028705;28;20388;-67
2022/07/07 06:05:12;;;;;;;1.08;0.45;;;19.50;99.90;;;;;;5028624;28;20034;-68
2022/07/07 06:07:39;;;;;;;4.65;1.30;;;19.30;99.90;;;;;;5029681;28;20033;-65
2022/07/07 06:10:07;;;;;;;1.50;0.70;;;19.10;99.90;;;;;;5032593;28;20033;-67
2022/07/07 06:12:35;;;;;;;2.92;0.60;;;19.00;99.90;;;;;;5030398;28;20285;-66
2022/07/07 06:15:02;;;;;;;2.42;0.85;;;19.00;99.90;;;;;;5031490;28;20025;-68
2022/07/07 06:17:29;;;;;;;1.75;0.90;;;19.00;99.90;;;;;;5028602;28;20376;-69
2022/07/07 06:19:57;;;;;;;4.82;1.75;;;19.00;99.90;;;;;;5031809;28;20075;-66
2022/07/07 06:22:26;;;;;;;6.72;1.20;;;18.80;99.90;;;;;;5028905;28;20029;-67
2022/07/07 06:24:53;;;;;;;10.55;1.95;;;18.40;99.90;;;;;;5030559;28;20139;-69
2022/07/07 06:27:21;;;;;;;6.22;1.92;;;18.00;99.90;;;;;;5030691;28;20541;-67
2022/07/07 06:29:49;;;;;;;6.03;1.88;;;17.60;99.90;;;;;;5029682;28;20048;-70
2022/07/07 06:32:16;;;;;;;3.38;1.30;;;17.40;99.90;;;;;;5029703;28;20025;-68
2022/07/07 06:34:43;;;;;;;4.28;1.67;;;17.20;99.90;;;;;;5029686;28;20029;-71
2022/07/07 06:37:11;;;;;;;6.72;1.50;;;17.00;99.90;;;;;;5028843;28;20546;-70
2022/07/07 06:39:38;;;;;;;6.43;1.92;;;16.80;99.90;;;;;;5029296;28;20115;-67
2022/07/07 06:42:05;;;;;;;7.10;1.70;;;16.70;99.90;;;;;;5029637;28;20075;-67
2022/07/07 06:44:33;;;;;;;4.60;1.58;;;16.60;99.90;;;;;;5029779;28;20025;-71
2022/07/07 06:47:01;;;;;;;5.70;1.77;;;16.40;99.90;;;;;;5028981;28;20495;-65
2022/07/07 06:49:29;;;;;;;6.97;1.73;;;16.30;99.90;;;;;;5030507;28;20080;-69
2022/07/07 06:51:56;;;;;;;9.18;2.25;;;16.10;99.90;;;;;;5027762;28;20025;-65
2022/07/07 06:54:24;;;;;;;5.72;2.75;;;15.90;99.90;;;;;;5028663;28;20797;-66
2022/07/07 06:56:51;;;;;;;4.35;1.55;;;15.80;99.90;;;;;;5029109;28;20029;-67
2022/07/07 06:59:18;;;;;;;4.97;1.35;;;15.60;99.90;;;;;;5029449;28;20021;-70
2022/07/07 07:01:46;;;;;;;4.95;2.55;;;15.50;99.90;;;;;;5029538;28;20029;-66
2022/07/07 07:04:13;;;;;;;6.72;2.20;;;15.30;99.90;;;;;;5025912;28;20033;-67
2022/07/07 07:06:45;;;;;;;8.95;3.53;;;15.30;99.90;;;;;;5028746;28;20462;-66
2022/07/07 07:09:13;;;;;;;7.72;3.20;;;15.10;99.90;;;;;;5029276;28;20033;-66
2022/07/07 07:11:40;;;;;;;5.18;2.80;;;15.00;99.90;;;;;;5028057;28;20403;-66
2022/07/07 07:14:07;;;;;;;6.10;3.13;;;15.00;99.90;;;;;;5028526;28;20159;-66
2022/07/07 07:16:34;;;;;;;5.85;2.47;;;14.90;99.90;;;;;;5028681;28;20071;-68
2022/07/07 07:19:02;;;;;;;3.35;2.03;;;14.90;99.90;;;;;;5027807;28;20024;-65
2022/07/07 07:21:29;;;;;;;4.80;2.50;;;14.80;99.90;;;;;;5025705;28;20407;-66
2022/07/07 07:23:56;;;;;;;5.93;2.13;;;14.70;99.90;;;;;;5026581;28;20040;-65
2022/07/07 07:26:23;;;;;;;6.45;2.70;;;14.60;99.90;;;;;;5023742;28;20157;-66
2022/07/07 07:28:51;;;;;;;4.80;1.65;;;14.60;99.90;;;;;;5025268;28;20507;-67
2022/07/07 07:31:18;;;;;;;4.00;1.80;;;14.50;99.90;;;;;;5027208;28;20220;-66
2022/07/07 07:33:47;;;;;;;8.85;4.05;;;14.40;99.90;;;;;;5023072;28;20025;-68
2022/07/07 07:36:14;;;;;;;6.55;3.10;;;14.30;99.90;;;;;;5025998;28;20095;-64
2022/07/07 07:38:43;;;;;;;6.22;1.52;;;14.20;99.90;;;;;;5026930;28;20057;-65
2022/07/07 07:41:12;;;;;;;8.35;2.60;;;14.10;99.90;;;;;;5027631;28;20030;-70
2022/07/07 07:43:39;;;;;;;12.88;4.07;;;14.00;99.90;;;;;;5025566;28;20072;-65
2022/07/07 07:46:06;;;;;;;7.43;2.65;;;13.90;99.90;;;;;;5025635;28;20039;-69
2022/07/07 07:48:34;;;;;;;8.32;2.28;;;13.90;99.90;;;;;;5025229;28;20037;-72
2022/07/07 07:51:01;;;;;;;7.10;2.13;;;13.80;99.90;;;;;;5026623;28;20431;-68
2022/07/07 07:53:28;;;;;;;5.65;2.20;;;13.80;99.90;;;;;;5025581;28;20052;-68
2022/07/07 07:55:55;;;;;;;5.65;2.22;;;13.80;99.90;;;;;;5026819;28;20078;-69
2022/07/07 07:58:22;;;;;;;4.45;2.10;;;13.80;99.90;;;;;;5024230;28;20052;-69
2022/07/07 08:00:49;;;;;;;4.65;3.65;;;13.70;99.90;;;;;;5026382;28;20687;-69
2022/07/07 08:03:17;;;;;;;8.30;4.95;;;13.60;99.90;;;;;;5027049;28;20025;-69
2022/07/07 08:05:44;;;;;;;6.05;4.93;;;13.60;99.90;;;;;;5025716;28;20035;-72
2022/07/07 08:08:11;;;;;;;7.15;5.05;;;13.60;99.90;;;;;;5023825;28;21335;-71
2022/07/07 08:10:38;;;;;;;4.93;2.83;;;13.50;99.90;;;;;;5027120;28;20482;-69
2022/07/07 08:13:06;;;;;;;4.93;2.78;;;13.40;99.90;;;;;;5024549;28;20044;-73
2022/07/07 08:15:33;;;;;;;4.82;1.67;;;13.30;99.90;;;;;;5023946;28;20041;-70
2022/07/07 08:18:00;;;;;;;3.35;1.73;;;13.30;99.90;;;;;;5024512;28;20024;-72
2022/07/07 08:20:28;;;;;;;1.92;1.00;;;13.20;99.90;;;;;;5025731;28;20040;-70
2022/07/07 08:22:55;;;;;;;6.45;1.92;;;13.10;99.90;;;;;;5024788;28;20132;-72
2022/07/07 08:25:22;;;;;;;2.63;1.80;;;13.00;99.90;;;;;;5024881;28;20025;-75
2022/07/07 08:27:50;;;;;;;8.02;3.92;;;13.00;99.90;;;;;;5024748;28;20488;-69
2022/07/07 08:30:17;;;;;;;7.03;2.13;;;12.90;99.90;;;;;;5024030;28;20051;-68
2022/07/07 08:32:45;;;;;;;5.55;1.55;;;12.70;99.90;;;;;;5020996;28;20148;-71
2022/07/07 08:35:14;;;;;;;2.17;1.40;;;12.60;99.90;;;;;;5022180;28;20067;-68
2022/07/07 08:37:42;;;;;;;2.28;1.33;;;12.60;99.90;;;;;;5020525;28;20033;-68
2022/07/07 08:40:10;;;;;;;2.67;1.40;;;12.50;99.90;;;;;;5022517;28;20423;-69
2022/07/07 08:42:38;;;;;;;2.42;1.50;;;12.40;99.90;;;;;;5022331;28;20523;-67
2022/07/07 08:45:06;;;;;;;1.90;1.30;;;12.40;99.90;;;;;;5026354;28;20041;-76
2022/07/07 08:47:33;;;;;;;3.67;1.40;;;12.30;99.90;;;;;;5022001;28;20505;-73
2022/07/07 08:50:01;;;;;;;3.85;1.45;;;12.20;99.90;;;;;;5025046;28;20063;-68
2022/07/07 08:52:29;;;;;;;3.15;1.75;;;12.00;99.90;;;;;;5023730;28;20039;-67
2022/07/07 08:54:57;;;;;;;2.50;1.38;;;12.00;99.90;;;;;;5023062;28;20025;-67
2022/07/07 08:57:25;;;;;;;3.35;1.50;;;12.00;99.90;;;;;;5021638;28;20068;-73
2022/07/07 08:59:56;;;;;;;5.72;3.53;;;11.80;99.90;;;;;;5023606;28;20496;-69
2022/07/07 09:02:24;;;;;;;4.07;3.28;;;11.80;99.90;;;;;;5021692;28;20025;-73
2022/07/07 09:04:52;;;;;;;3.45;1.55;;;11.80;99.90;;;;;;5022749;28;20086;-76
2022/07/07 09:07:20;;;;;;;2.08;1.52;;;11.80;99.90;;;;;;5024728;28;20571;-71
2022/07/07 09:09:49;;;;;;;2.28;1.30;;;11.80;99.90;;;;;;5021969;28;20130;-70
2022/07/07 09:12:18;;;;;;;2.00;1.50;;;11.80;99.90;;;;;;5021804;28;20404;-66
2022/07/07 09:14:47;;;;;;;2.55;2.05;;;11.70;99.90;;;;;;5023089;28;20033;-68
2022/07/07 09:17:19;;;;;;;9.70;2.10;;;11.80;99.90;;;;;;5024104;28;20551;-70
2022/07/07 09:20:08;;;;;;;4.53;1.77;;;11.80;99.90;;;;;;5027551;28;20436;-66
2022/07/07 09:22:54;;;;;;;4.22;1.90;;;11.70;99.90;;;;;;5027203;28;20056;-70
2022/07/07 09:25:23;;;;;;;2.67;1.60;;;11.70;99.90;;;;;;5029150;28;20059;-72
2022/07/07 09:28:04;;;;;;;4.00;1.95;;;11.60;99.90;;;;;;5029128;28;20116;-69
2022/07/07 09:30:51;;;;;;;4.38;2.00;;;11.50;99.90;;;;;;5027875;28;20045;-65
2022/07/07 09:33:24;;;;;;;2.90;1.98;;;11.40;99.90;;;;;;5023955;28;20045;-69
2022/07/07 09:38:38;;;;;;;2.97;2.47;;;11.20;99.90;;;;;;5028081;28;19979;-66
2022/07/07 09:41:12;;;;;;;4.53;3.78;;;11.20;99.90;;;;;;5026543;28;20155;-66
2022/07/07 09:43:51;;;;;;;5.07;4.20;;;11.10;99.90;;;;;;5028222;28;20032;-66
2022/07/07 09:46:21;;;;;;;5.35;3.63;;;11.10;99.90;;;;;;5021604;28;20029;-70
2022/07/07 09:48:48;;;;;;;3.30;2.83;;;10.90;99.90;;;;;;5020847;28;20452;-68
2022/07/07 09:51:19;;;;;;;4.75;2.88;;;10.80;99.90;;;;;;5020248;28;20053;-68
2022/07/07 09:54:04;;;;;;;4.40;3.03;;;10.60;99.90;;;;;;5021509;28;20522;-69
2022/07/07 09:56:50;;;;;;;5.97;3.17;;;10.50;99.90;;;;;;5019944;28;20365;-68
2022/07/07 09:59:22;;;;;;;5.78;2.90;;;10.40;99.90;;;;;;5024071;28;20026;-66
2022/07/07 10:01:50;;;;;;;5.13;2.53;;;10.30;99.90;;;;;;5021543;28;20025;-66
2022/07/07 10:04:22;;;;;;;3.40;2.60;;;10.20;99.90;;;;;;5022112;28;20036;-68
2022/07/07 10:06:51;;;;;;;5.45;2.60;;;10.10;99.90;;;;;;5021698;28;20083;-67
2022/07/07 10:09:20;;;;;;;3.60;2.40;;;10.00;99.90;;;;;;5022439;28;20056;-66
2022/07/07 10:11:51;;;;;;;4.65;3.25;;;10.00;99.90;;;;;;5021458;28;20038;-66
2022/07/07 10:14:28;;;;;;;5.68;2.85;;;10.00;99.90;;;;;;5021795;28;20034;-67
2022/07/07 10:16:55;;;;;;;3.28;1.90;;;9.90;99.90;;;;;;5023104;28;20034;-68
2022/07/07 10:19:24;;;;;;;3.58;2.00;;;9.90;99.90;;;;;;5020873;28;20029;-66
2022/07/07 10:21:54;;;;;;;3.63;2.22;;;9.90;99.90;;;;;;5017629;28;20042;-68
2022/07/07 10:24:25;;;;;;;2.63;2.05;;;9.90;99.90;;;;;;5018268;28;20122;-69
2022/07/07 10:26:55;;;;;;;5.05;2.53;;;9.80;99.90;;;;;;5018926;28;20385;-68
2022/07/07 10:29:42;;;;;;;5.45;2.40;;;9.90;99.90;;;;;;5018384;28;20060;-69
2022/07/07 10:32:14;;;;;;;5.03;2.97;;;9.90;99.90;;;;;;5016455;28;20431;-72
2022/07/07 10:34:53;;;;;;;3.30;2.00;;;9.90;99.90;;;;;;5018546;28;20076;-68
2022/07/07 10:37:22;;;;;;;3.85;2.17;;;10.00;99.90;;;;;;5019848;28;20374;-65
2022/07/07 10:39:51;;;;;;;7.22;2.75;;;10.10;99.90;;;;;;5018965;28;20017;-66
2022/07/07 10:42:28;;;;;;;3.47;2.22;;;10.20;99.90;;;;;;5018494;28;20105;-69
2022/07/07 10:44:56;;;;;;;5.50;2.58;;;10.10;99.90;;;;;;5017936;28;20029;-70
2022/07/07 10:47:23;;;;;;;6.20;2.53;;;10.10;99.90;;;;;;5019105;28;20099;-67
2022/07/07 10:49:57;;;;;;;3.75;1.95;;;10.20;99.90;;;;;;5018672;28;20060;-68
2022/07/07 10:52:28;;;;;;;3.08;1.40;;;10.30;99.90;;;;;;5018715;28;20021;-67
2022/07/07 10:55:00;;;;;;;2.60;1.52;;;10.50;99.90;;;;;;5014975;28;20040;-66
2022/07/07 10:57:39;;;;;;;1.73;1.20;;;10.50;99.90;;;;;;5018922;28;20052;-70
2022/07/07 11:00:09;;;;;;;1.80;1.17;;;10.50;99.90;;;;;;5018163;28;20033;-66
2022/07/07 11:02:38;;;;;;;3.35;0.98;;;10.60;99.90;;;;;;5018476;28;20092;-68
2022/07/07 11:05:29;;;;;;;1.65;0.77;;;10.70;99.90;;;;;;5016880;28;20104;-67
2022/07/07 11:07:59;;;;;;;2.13;1.10;;;10.90;99.90;;;;;;5016793;28;20594;-66
2022/07/07 11:10:51;;;;;;;1.10;0.80;;;11.00;99.90;;;;;;5017456;28;20057;-66
2022/07/07 11:13:21;;;;;;;3.40;0.60;;;11.00;99.90;;;;;;5017293;28;20511;-67
2022/07/07 11:15:50;;;;;;;4.65;0.90;;;11.10;99.90;;;;;;5017916;28;20734;-68
2022/07/07 11:18:20;;;;;;;3.03;0.80;;;11.10;99.90;;;;;;5019609;28;20029;-66
2022/07/07 11:21:00;;;;;;;4.55;0.80;;;11.10;99.90;;;;;;5017557;28;20022;-67
2022/07/07 11:23:48;;;;;;;0.70;0.60;;;11.10;99.90;;;;;;5015081;28;20108;-67
2022/07/07 11:26:18;;;;;;;0.60;0.60;;;11.10;99.90;;;;;;5015178;28;20025;-67
2022/07/07 11:28:46;;;;;;;1.02;0.50;;;11.20;99.90;;;;;;5015948;28;20482;-67
2022/07/07 11:31:14;;;;;;;2.33;0.85;;;11.10;99.90;;;;;;5014376;28;20339;-68
2022/07/07 11:33:41;;;;;;;1.33;0.70;;;11.10;99.90;;;;;;5013584;28;20021;-68
2022/07/07 11:36:28;;;;;;;1.42;0.60;;;11.10;99.90;;;;;;5016173;28;20040;-67
2022/07/07 11:39:06;;;;;;;1.27;0.50;;;11.10;99.90;;;;;;5019409;28;20029;-67
2022/07/07 11:41:44;;;;;;;0.80;0.60;;;11.10;99.90;;;;;;5017214;28;20041;-67
2022/07/07 11:44:22;;;;;;;0.73;0.52;;;11.10;99.90;;;;;;5017525;28;20099;-68
2022/07/07 11:46:53;;;;;;;0.98;0.60;;;11.10;99.90;;;;;;5016784;28;20029;-67
2022/07/07 11:49:21;;;;;;;1.17;0.55;;;11.10;99.90;;;;;;5015578;28;20675;-67
2022/07/07 11:51:49;;;;;;;0.70;0.70;;;11.10;99.90;;;;;;5017617;28;20033;-67
2022/07/07 11:54:16;;;;;;;5.47;0.90;;;11.10;99.90;;;;;;5014758;28;20040;-68
2022/07/07 11:56:46;;;;;;;1.20;0.82;;;11.10;99.90;;;;;;5014153;28;20029;-68
2022/07/07 11:59:13;;;;;;;1.88;0.80;;;11.00;99.90;;;;;;5017459;28;20049;-68
2022/07/07 12:01:45;;;;;;;2.58;1.10;;;11.00;99.90;;;;;;5016499;28;20124;-70
2022/07/07 12:04:23;;;;;;;1.33;1.00;;;10.90;99.90;;;;;;5015459;28;20397;-67
2022/07/07 12:06:51;;;;;;;3.67;1.00;;;10.80;99.90;;;;;;5016127;28;20029;-66
2022/07/07 12:09:19;;;;;;;4.22;1.65;;;10.70;99.90;;;;;;5014872;28;20315;-68
2022/07/07 12:11:46;;;;;;;1.95;1.40;;;10.60;99.90;;;;;;5016389;28;20108;-68
2022/07/07 12:14:15;;;;;;;2.55;1.50;;;10.50;99.90;;;;;;5016056;28;20073;-69
2022/07/07 12:16:47;;;;;;;3.70;1.95;;;10.50;99.90;;;;;;5014988;28;20486;-69
2022/07/07 12:19:15;;;;;;;3.08;1.20;;;10.40;99.90;;;;;;5016912;28;20039;-68
2022/07/07 12:21:48;;;;;;;2.38;1.17;;;10.20;99.90;;;;;;5016180;28;20029;-65
2022/07/07 12:24:17;;;;;;;2.08;0.90;;;10.00;99.90;;;;;;5017421;28;20080;-68
2022/07/07 12:26:51;;;;;;;2.92;1.35;;;9.80;99.90;;;;;;5016755;28;20033;-67
2022/07/07 12:29:19;;;;;;;4.57;1.45;;;9.70;99.90;;;;;;5017755;28;20120;-68
2022/07/07 12:31:48;;;;;;;4.38;1.10;;;9.50;99.90;;;;;;5021052;28;20116;-65
2022/07/07 12:34:18;;;;;;;1.38;0.95;;;9.30;99.90;;;;;;5019809;28;20018;-65
2022/07/07 12:36:48;;;;;;;2.17;0.85;;;9.20;99.90;;;;;;5024067;28;20160;-66
2022/07/07 12:39:15;;;;;;;1.90;0.95;;;9.10;99.90;;;;;;5019166;28;20029;-66
2022/07/07 12:41:43;;;;;;;2.03;0.90;;;9.10;99.90;;;;;;5023030;28;20017;-66
2022/07/07 12:44:31;;;;;;;2.28;1.20;;;9.00;99.90;;;;;;5017011;28;20036;-68
2022/07/07 12:47:01;;;;;;;2.00;1.23;;;8.80;99.90;;;;;;5023017;28;20034;-67
2022/07/07 12:49:29;;;;;;;3.47;1.83;;;8.70;99.90;;;;;;5023372;28;20116;-65
2022/07/07 12:51:56;;;;;;;5.57;3.15;;;8.70;99.90;;;;;;5023062;28;20559;-68
2022/07/07 12:54:29;;;;;;;6.13;3.00;;;8.60;99.90;;;;;;5024024;28;20025;-67
2022/07/07 12:57:03;;;;;;;;;;;8.70;99.90;;;;;;5028093;28;20100;-68
2022/07/07 12:59:36;;;;;;;2.60;2.10;;;8.60;99.90;;;;;;5025113;28;19956;-68
2022/07/07 13:02:05;;;;;;;3.25;2.05;;;8.50;99.90;;;;;;5029868;28;20040;-69